createdAt,value
2022-08-03T00:01:44.730Z,6.85
2022-08-03T00:04:13.238Z,6.63
2022-08-03T00:06:41.109Z,6.05
2022-08-03T00:09:10.742Z,6.95
2022-08-03T00:11:39.409Z,5.38
2022-08-03T00:14:08.268Z,5.18
2022-08-03T00:16:36.268Z,7.10
2022-08-03T00:19:04.580Z,6.57
2022-08-03T00:21:32.459Z,5.47
2022-08-03T00:24:00.266Z,7.97
2022-08-03T00:26:29.567Z,6.38
2022-08-03T00:28:57.512Z,5.65
2022-08-03T00:31:39.791Z,6.70
2022-08-03T00:34:13.232Z,5.93
2022-08-03T00:36:41.429Z,4.57
2022-08-03T00:39:09.694Z,7.95
2022-08-03T00:41:39.006Z,4.63
2022-08-03T00:44:06.905Z,4.50
2022-08-03T00:46:34.750Z,9.85
2022-08-03T00:49:03.401Z,6.43
2022-08-03T00:51:31.365Z,5.80
2022-08-03T00:53:59.213Z,6.28
2022-08-03T00:56:27.828Z,5.43
2022-08-03T00:58:58.755Z,6.22
2022-08-03T01:01:26.633Z,6.38
2022-08-03T01:04:00.037Z,6.03
2022-08-03T01:06:35.351Z,5.72
2022-08-03T01:09:10.580Z,5.90
2022-08-03T01:11:59.907Z,6.47
2022-08-03T01:14:35.534Z,5.85
2022-08-03T01:17:08.591Z,6.38
2022-08-03T01:19:47.673Z,7.00
2022-08-03T01:22:29.715Z,4.50
2022-08-03T01:25:04.235Z,6.75
2022-08-03T01:27:44.491Z,7.85
2022-08-03T01:30:14.133Z,9.18
2022-08-03T01:32:54.491Z,8.27
2022-08-03T01:35:35.516Z,7.80
2022-08-03T01:38:11.114Z,6.78
2022-08-03T01:43:12.783Z,7.70
2022-08-03T01:45:44.955Z,6.00
2022-08-03T01:48:13.864Z,6.45
2022-08-03T01:50:42.141Z,5.50
2022-08-03T01:53:11.039Z,6.15
2022-08-03T01:55:41.207Z,7.82
2022-08-03T01:58:09.686Z,6.13
2022-08-03T02:00:38.873Z,7.05
2022-08-03T02:03:09.446Z,7.63
2022-08-03T02:05:39.060Z,8.23
2022-08-03T02:08:10.136Z,5.07
2022-08-03T02:10:39.078Z,6.30
2022-08-03T02:13:09.751Z,8.18
2022-08-03T02:15:38.982Z,9.02
2022-08-03T02:18:10.644Z,7.50
2022-08-03T02:20:39.869Z,5.35
2022-08-03T02:23:08.008Z,7.45
2022-08-03T02:25:40.037Z,6.15
2022-08-03T02:28:13.127Z,6.18
2022-08-03T02:30:44.563Z,6.93
2022-08-03T02:33:19.815Z,7.85
2022-08-03T02:35:48.786Z,5.03
2022-08-03T02:38:20.462Z,6.25
2022-08-03T02:40:48.714Z,5.55
2022-08-03T02:43:19.170Z,5.65
2022-08-03T02:45:49.233Z,5.70
2022-08-03T02:48:22.701Z,12.65
2022-08-03T02:50:52.910Z,7.43
2022-08-03T02:53:22.445Z,7.72
2022-08-03T02:55:51.261Z,5.97
2022-08-03T02:58:21.698Z,6.47
2022-08-03T03:00:51.771Z,7.63
2022-08-03T03:03:23.315Z,6.80
2022-08-03T03:05:57.615Z,5.57
2022-08-03T04:02:43.720Z,10.85
2022-08-03T04:10:27.439Z,10.98
2022-08-03T04:12:17.562Z,9.38
2022-08-03T04:18:51.769Z,9.73
2022-08-03T04:22:33.325Z,9.00
2022-08-03T04:26:11.757Z,10.63
2022-08-03T04:30:05.784Z,9.07
2022-08-03T04:33:23.031Z,9.65
2022-08-03T04:40:29.877Z,9.32
2022-08-03T04:54:16.170Z,11.98
2022-08-03T05:03:25.217Z,9.80
2022-08-03T05:06:11.490Z,11.63
2022-08-03T05:09:49.927Z,8.88
2022-08-03T05:14:49.807Z,8.13
2022-08-03T05:17:48.496Z,8.93
2022-08-03T05:20:56.935Z,9.77
2022-08-03T05:23:32.228Z,10.32
2022-08-03T05:26:30.987Z,9.17
2022-08-03T05:31:12.738Z,10.18
2022-08-03T05:32:40.404Z,8.45
2022-08-03T05:39:35.357Z,9.98
2022-08-03T05:47:52.617Z,11.15
2022-08-03T05:51:26.278Z,10.98
2022-08-03T06:03:40.380Z,14.40
2022-08-03T06:06:00.195Z,16.55
2022-08-03T06:12:27.235Z,13.48
2022-08-03T06:19:19.750Z,19.58
2022-08-03T06:22:35.971Z,15.52
2022-08-03T06:28:53.247Z,18.40
2022-08-03T06:31:33.359Z,17.55
2022-08-03T06:34:31.357Z,15.75
2022-08-03T06:37:29.554Z,18.30
2022-08-03T06:40:21.602Z,16.88
2022-08-03T06:42:56.794Z,17.67
2022-08-03T06:45:41.155Z,18.25
2022-08-03T06:48:33.040Z,15.55
2022-08-03T06:52:04.955Z,13.15
2022-08-03T06:54:25.100Z,14.25
2022-08-03T06:57:24.569Z,9.93
2022-08-03T07:01:03.437Z,15.80
2022-08-03T07:03:04.661Z,11.63
2022-08-03T07:05:58.692Z,11.55
2022-08-03T07:08:34.473Z,14.23
2022-08-03T07:11:22.377Z,14.00
2022-08-03T07:14:28.310Z,11.77
2022-08-03T07:16:57.200Z,12.75
2022-08-03T07:19:33.029Z,13.00
2022-08-03T07:22:24.852Z,12.13
2022-08-03T07:25:09.111Z,10.48
2022-08-03T07:27:40.944Z,9.77
2022-08-03T07:30:28.682Z,10.35
2022-08-03T07:33:11.100Z,7.93
2022-08-03T07:35:50.997Z,9.80
2022-08-03T07:38:28.489Z,7.15
2022-08-03T07:41:13.102Z,8.68
2022-08-03T07:45:43.846Z,9.77
2022-08-03T07:47:07.248Z,8.85
2022-08-03T07:49:55.809Z,7.20
2022-08-03T07:56:03.313Z,8.93
2022-08-03T07:58:54.116Z,5.57
2022-08-03T08:01:39.546Z,6.90
2022-08-03T08:05:05.465Z,6.40
2022-08-03T08:10:30.930Z,7.72
2022-08-03T08:13:54.470Z,6.65
2022-08-03T08:16:40.777Z,5.28
2022-08-03T08:19:23.567Z,7.68
2022-08-03T08:22:48.912Z,4.60
2022-08-03T08:25:58.925Z,7.18
2022-08-03T08:28:57.983Z,5.18
2022-08-03T08:35:05.414Z,6.53
2022-08-03T08:41:53.477Z,6.75
2022-08-03T08:45:14.834Z,9.05
2022-08-03T08:48:29.941Z,5.72
2022-08-03T08:51:59.318Z,4.40
2022-08-03T08:54:27.648Z,5.32
2022-08-03T08:57:49.049Z,5.55
2022-08-03T09:00:29.410Z,5.35
2022-08-03T09:03:51.211Z,5.68
2022-08-03T09:10:11.279Z,6.25
2022-08-03T09:12:53.362Z,5.63
2022-08-03T09:15:57.164Z,8.02
2022-08-03T09:18:32.295Z,4.47
2022-08-03T09:21:31.599Z,5.45
2022-08-03T09:24:41.087Z,5.82
2022-08-03T09:27:38.305Z,9.70
2022-08-03T09:30:34.381Z,6.10
2022-08-03T09:33:10.565Z,4.43
2022-08-03T09:35:54.811Z,4.55
2022-08-03T09:38:43.653Z,5.53
2022-08-03T09:41:28.987Z,4.28
2022-08-03T09:44:03.580Z,6.20
2022-08-03T09:46:38.066Z,4.18
2022-08-03T09:49:23.682Z,5.85
2022-08-03T09:52:32.193Z,4.38
2022-08-03T09:56:33.541Z,3.78
2022-08-03T09:59:30.684Z,4.63
2022-08-03T10:02:33.148Z,4.07
2022-08-03T10:08:40.773Z,3.25
2022-08-03T10:11:50.140Z,3.72
2022-08-03T10:14:50.709Z,3.38
2022-08-03T10:23:33.164Z,3.55
2022-08-03T10:26:22.684Z,3.40
2022-08-03T10:29:22.523Z,3.33
2022-08-03T10:32:24.264Z,4.93
2022-08-03T10:35:20.044Z,3.72
2022-08-03T10:41:59.944Z,4.47
2022-08-03T10:45:28.485Z,5.10
2022-08-03T10:51:48.336Z,4.95
2022-08-03T10:55:09.962Z,4.32
2022-08-03T10:58:30.685Z,4.78
2022-08-03T11:01:23.423Z,4.63
2022-08-03T11:04:58.799Z,3.55
2022-08-03T11:08:07.354Z,6.20
2022-08-03T11:14:10.904Z,5.25
2022-08-03T11:17:33.048Z,4.70
2022-08-03T11:20:15.288Z,4.45
2022-08-03T11:24:02.850Z,4.65
2022-08-03T11:26:51.358Z,2.75
2022-08-03T11:30:08.316Z,4.90
2022-08-03T11:33:55.418Z,4.32
2022-08-03T11:36:31.976Z,5.35
2022-08-03T11:39:57.417Z,4.22
2022-08-03T11:43:40.477Z,4.47
2022-08-03T12:10:25.931Z,3.15
2022-08-03T12:12:56.992Z,5.03
2022-08-03T12:15:27.309Z,4.38
2022-08-03T12:17:57.844Z,3.10
2022-08-03T12:20:34.480Z,5.97
2022-08-03T12:23:07.111Z,3.83
2022-08-03T12:28:28.365Z,3.63
2022-08-03T12:31:03.207Z,4.95
2022-08-03T12:33:31.288Z,4.97
2022-08-03T12:36:08.314Z,4.20
2022-08-03T12:38:39.565Z,4.07
2022-08-03T12:41:13.504Z,6.25
2022-08-03T12:43:50.035Z,3.35
2022-08-03T12:46:18.971Z,4.15
2022-08-03T12:49:08.969Z,4.57
2022-08-03T12:51:39.238Z,5.78
2022-08-03T12:54:07.599Z,3.25
2022-08-03T12:56:37.015Z,4.78
2022-08-03T12:59:25.773Z,5.10
2022-08-03T13:02:04.370Z,4.50
2022-08-03T13:04:34.819Z,5.43
2022-08-03T13:07:04.173Z,5.47
2022-08-03T13:09:42.648Z,3.00
2022-08-03T13:12:13.576Z,5.60
2022-08-03T13:14:41.886Z,3.57
2022-08-03T13:17:09.855Z,2.45
2022-08-03T13:19:39.563Z,7.32
2022-08-03T13:22:15.157Z,3.20
2022-08-03T13:24:43.881Z,3.60
2022-08-03T13:28:02.565Z,3.05
2022-08-03T13:30:02.167Z,4.65
2022-08-03T13:32:29.915Z,4.28
2022-08-03T13:34:57.723Z,3.17
2022-08-03T13:37:26.564Z,6.25
2022-08-03T13:40:00.331Z,5.40
2022-08-03T13:42:34.017Z,5.38
2022-08-03T13:45:02.614Z,4.23
2022-08-03T13:47:30.479Z,3.80
2022-08-03T13:50:01.437Z,2.47
2022-08-03T13:52:31.388Z,5.55
2022-08-03T13:54:59.833Z,4.95
2022-08-03T13:58:04.380Z,3.60
2022-08-03T14:00:27.987Z,4.00
2022-08-03T14:03:05.063Z,5.07
2022-08-03T14:05:38.475Z,4.07
2022-08-03T14:08:07.233Z,4.05
2022-08-03T14:10:36.633Z,3.28
2022-08-03T14:13:04.964Z,3.80
2022-08-03T14:15:37.790Z,1.83
2022-08-03T14:18:06.965Z,8.82
2022-08-03T14:20:36.587Z,6.20
2022-08-03T14:23:12.968Z,1.88
2022-08-03T14:25:49.894Z,3.67
2022-08-03T14:28:20.259Z,4.65
2022-08-03T14:30:49.643Z,6.15
2022-08-03T14:33:17.516Z,3.78
2022-08-03T14:35:46.699Z,7.47
2022-08-03T14:38:14.859Z,5.82
2022-08-03T14:40:43.251Z,10.38
2022-08-03T14:43:11.223Z,18.45
2022-08-03T14:45:39.684Z,3.58
2022-08-03T14:50:30.652Z,4.18
2022-08-03T14:50:57.009Z,4.63
2022-08-03T14:53:24.947Z,2.40
2022-08-03T14:55:53.427Z,5.43
2022-08-03T14:58:22.057Z,4.50
2022-08-03T15:00:51.389Z,4.20
2022-08-03T15:03:23.682Z,3.42
2022-08-03T15:05:52.878Z,2.95
2022-08-03T15:08:21.028Z,3.17
2022-08-03T15:10:49.386Z,4.00
2022-08-03T15:13:17.911Z,3.63
2022-08-03T15:15:45.827Z,4.30
2022-08-03T15:18:13.615Z,2.17
2022-08-03T15:20:45.949Z,2.30
2022-08-03T15:23:15.098Z,13.35
2022-08-03T15:26:30.091Z,4.18
2022-08-03T15:28:31.400Z,2.17
2022-08-03T15:30:59.314Z,3.90
2022-08-03T15:33:27.271Z,3.58
2022-08-03T15:35:57.302Z,4.80
2022-08-03T15:38:25.912Z,3.20
2022-08-03T15:40:55.422Z,7.47
2022-08-03T15:43:23.386Z,4.82
2022-08-03T15:46:12.621Z,7.00
2022-08-03T15:48:39.319Z,5.57
2022-08-03T15:51:09.288Z,3.67
2022-08-03T15:53:37.396Z,4.57
2022-08-03T15:56:12.152Z,3.67
2022-08-03T15:59:03.433Z,4.20
2022-08-03T16:01:31.253Z,5.32
2022-08-03T16:03:59.026Z,3.53
2022-08-03T16:06:35.277Z,2.47
2022-08-03T16:09:24.174Z,3.75
2022-08-03T16:11:54.378Z,7.78
2022-08-03T16:14:34.235Z,4.75
2022-08-03T16:17:06.022Z,4.47
2022-08-03T16:19:33.970Z,5.55
2022-08-03T16:22:04.936Z,6.22
2022-08-03T16:24:34.049Z,4.80
2022-08-03T16:29:35.751Z,4.70
2022-08-03T16:32:09.315Z,15.15
2022-08-03T16:34:38.081Z,10.75
2022-08-03T16:37:35.363Z,8.88
2022-08-03T16:39:55.800Z,5.68
2022-08-03T16:42:23.620Z,4.63
2022-08-03T16:44:51.405Z,6.88
2022-08-03T16:47:21.817Z,6.28
2022-08-03T16:49:53.743Z,5.95
2022-08-03T16:52:26.415Z,6.38
2022-08-03T16:54:54.773Z,9.57
2022-08-03T16:57:56.307Z,8.50
2022-08-03T17:00:33.247Z,7.00
2022-08-03T17:03:04.124Z,5.13
2022-08-03T17:05:47.006Z,7.15
2022-08-03T17:08:26.255Z,9.07
2022-08-03T17:10:55.663Z,6.57
2022-08-03T17:13:27.726Z,6.68
2022-08-03T17:16:12.086Z,5.15
2022-08-03T17:18:48.308Z,4.75
2022-08-03T17:21:23.812Z,5.55
2022-08-03T17:24:00.013Z,6.63
2022-08-03T17:26:30.468Z,6.88
2022-08-03T17:29:11.109Z,4.82
2022-08-03T17:31:49.436Z,7.75
2022-08-03T17:34:18.895Z,7.93
2022-08-03T17:37:03.730Z,7.22
2022-08-03T17:39:58.700Z,5.13
2022-08-03T17:42:30.213Z,5.25
2022-08-03T17:45:02.287Z,6.82
2022-08-03T17:47:42.088Z,6.38
2022-08-03T17:50:23.929Z,6.20
2022-08-03T17:53:07.306Z,8.48
2022-08-03T17:55:55.830Z,5.95
2022-08-03T17:58:38.093Z,5.22
2022-08-03T18:01:59.274Z,4.40
2022-08-03T18:04:30.351Z,6.93
2022-08-03T18:07:00.508Z,7.57
2022-08-03T18:10:03.508Z,5.90
2022-08-03T18:12:51.760Z,5.63
2022-08-03T18:15:29.546Z,6.28
2022-08-03T18:18:10.297Z,6.32
2022-08-03T18:20:42.701Z,7.85
2022-08-03T18:23:24.866Z,5.75
2022-08-03T18:26:04.812Z,6.95
2022-08-03T18:28:35.900Z,4.55
2022-08-03T18:31:05.670Z,4.15
2022-08-03T18:34:16.659Z,7.07
2022-08-03T18:36:30.620Z,7.00
2022-08-03T18:39:00.436Z,6.47
2022-08-03T18:44:08.719Z,7.85
2022-08-03T18:46:54.897Z,5.30
2022-08-03T18:49:36.745Z,5.97
2022-08-03T18:52:12.137Z,5.10
2022-08-03T18:55:03.867Z,8.07
2022-08-03T18:57:43.162Z,6.63
2022-08-03T19:00:15.658Z,4.90
2022-08-03T19:02:50.229Z,7.03
2022-08-03T19:05:21.611Z,8.63
2022-08-03T19:07:58.465Z,4.90
2022-08-03T19:10:57.776Z,5.95
2022-08-03T19:13:36.126Z,7.63
2022-08-03T19:16:15.626Z,8.00
2022-08-03T19:18:49.653Z,6.75
2022-08-03T19:21:18.067Z,8.23
2022-08-03T19:23:46.543Z,8.40
2022-08-03T19:29:15.190Z,10.35
2022-08-03T19:31:58.784Z,7.93
2022-08-03T19:34:30.187Z,6.63
2022-08-03T19:36:58.811Z,9.18
2022-08-03T19:39:26.996Z,8.07
2022-08-03T19:42:08.093Z,5.47
2022-08-03T19:44:40.932Z,5.63
2022-08-03T19:47:17.088Z,7.23
2022-08-03T19:50:06.254Z,7.47
2022-08-03T19:52:51.945Z,6.10
2022-08-03T19:55:22.975Z,7.70
2022-08-03T19:57:57.848Z,6.20
2022-08-03T20:00:38.108Z,7.47
2022-08-03T20:03:19.646Z,6.40
2022-08-03T20:05:54.159Z,6.90
2022-08-03T20:08:23.421Z,7.28
2022-08-03T20:10:57.773Z,6.75
2022-08-03T20:13:28.398Z,5.82
2022-08-03T20:15:56.318Z,5.95
2022-08-03T20:18:26.403Z,6.18
2022-08-03T20:20:55.639Z,8.38
2022-08-03T20:23:25.776Z,6.97
2022-08-03T20:26:05.463Z,5.40
2022-08-03T20:31:23.811Z,6.87
2022-08-03T20:34:01.948Z,6.35
2022-08-03T20:36:30.304Z,4.95
2022-08-03T20:38:59.737Z,5.70
2022-08-03T20:41:27.828Z,7.82
2022-08-03T20:44:00.839Z,7.82
2022-08-03T20:46:41.389Z,8.82
2022-08-03T20:49:19.500Z,8.27
2022-08-03T20:51:52.584Z,4.93
2022-08-03T20:54:31.102Z,6.70
2022-08-03T20:57:03.704Z,6.75
2022-08-03T20:59:47.345Z,9.20
2022-08-03T21:02:29.882Z,5.78
2022-08-03T21:05:03.505Z,6.63
2022-08-03T21:08:04.301Z,7.00
2022-08-03T21:10:30.456Z,8.35
2022-08-03T21:13:02.202Z,4.97
2022-08-03T21:13:15.488Z,6.70
2022-08-03T21:16:04.760Z,7.57
2022-08-03T21:18:38.785Z,6.53
2022-08-03T21:21:11.158Z,7.43
2022-08-03T21:23:49.007Z,7.93
2022-08-03T21:26:19.144Z,6.25
2022-08-03T21:28:47.984Z,8.70
2022-08-03T21:31:24.860Z,7.38
2022-08-03T21:33:55.501Z,3.67
2022-08-03T21:36:25.491Z,11.27
2022-08-03T21:38:57.050Z,6.43
2022-08-03T21:41:26.184Z,6.07
2022-08-03T21:43:53.922Z,6.40
2022-08-03T21:46:23.944Z,7.07
2022-08-03T21:48:56.116Z,5.72
2022-08-03T21:51:26.929Z,6.72
2022-08-03T21:54:03.606Z,7.28
2022-08-03T21:56:37.177Z,5.78
2022-08-03T21:59:07.669Z,9.15
2022-08-03T22:01:37.018Z,4.35
2022-08-03T22:04:07.103Z,5.65
2022-08-03T22:06:36.445Z,6.10
2022-08-03T22:09:06.716Z,8.23
2022-08-03T22:11:35.060Z,6.00
2022-08-03T22:14:02.995Z,7.03
2022-08-03T22:16:30.839Z,6.32
2022-08-03T22:18:58.612Z,6.20
2022-08-03T22:21:36.367Z,5.05
2022-08-03T22:24:07.400Z,8.48
2022-08-03T22:26:37.074Z,6.50
2022-08-03T22:29:08.903Z,8.02
2022-08-03T22:31:57.446Z,5.45
2022-08-03T22:34:27.442Z,8.98
2022-08-03T22:37:00.141Z,8.45
2022-08-03T22:39:30.598Z,7.07
2022-08-03T22:41:59.211Z,7.50
2022-08-03T22:44:27.546Z,7.03
2022-08-03T22:46:56.490Z,5.78
2022-08-03T22:49:24.872Z,6.63
2022-08-03T22:51:53.156Z,4.93
2022-08-03T22:54:20.994Z,5.65
2022-08-03T22:56:50.998Z,7.07
2022-08-03T22:59:39.283Z,10.13
2022-08-03T23:02:20.562Z,7.78
2022-08-03T23:07:31.239Z,4.85
2022-08-03T23:10:01.634Z,5.40
2022-08-03T23:12:33.847Z,4.28
2022-08-03T23:15:03.277Z,4.72
2022-08-03T23:17:32.694Z,5.95
2022-08-03T23:20:04.067Z,6.60
2022-08-03T23:22:32.311Z,13.55
2022-08-03T23:25:03.554Z,7.65
2022-08-03T23:27:33.994Z,6.68
2022-08-03T23:30:02.966Z,6.40
2022-08-03T23:32:31.756Z,5.15
2022-08-03T23:35:19.371Z,4.65
2022-08-03T23:38:04.006Z,4.93
2022-08-03T23:40:37.965Z,6.82
2022-08-03T23:43:07.994Z,5.68
2022-08-03T23:45:45.585Z,5.45
2022-08-03T23:48:13.707Z,5.85
2022-08-03T23:50:46.084Z,6.45
2022-08-03T23:53:19.242Z,7.13
2022-08-03T23:55:57.012Z,8.68
2022-08-03T23:58:39.828Z,6.78
